ADDS METAR Data INFO
IDs: Format: Raw Decoded Include TAF

Data at: 1132 UTC 29 May 2017

KLAR 291053Z AUTO 20007KT 10SM BKN075 OVC095 03/02 A3031 RMK AO2 SLP192 T00330017
KLAR 290953Z AUTO 21006KT 10SM FEW095 01/01 A3032 RMK AO2 SLP202 T00110006
KLAR 290853Z AUTO 15006KT 10SM CLR 03/01 A3032 RMK AO2 SLP201 T00280011 58004
KLAR 290753Z AUTO 26006KT 10SM SCT065 BKN080 04/02 A3033 RMK AO2 SLP205 T00390022
KLAR 290653Z AUTO 25009KT 10SM OVC095 06/03 A3033 RMK AO2 SLP204 T00560028 401781028
KLAR 290553Z AUTO 25004KT 10SM BKN110 05/02 A3034 RMK AO2 SLP206 T00500022 10167 20050 51015
KLAR 290453Z AUTO 06010KT 10SM OVC100 07/02 A3032 RMK AO2 SLP199 T00720022
KLAR 290353Z AUTO 01009KT 10SM SCT110 08/01 A3032 RMK AO2 PK WND 34026/0306 LTG DSNT NE SLP198 T00830011
KLAR 290253Z AUTO 35009KT 10SM CLR 10/02 A3028 RMK AO2 SLP187 T01000017 53007
KLAR 290153Z AUTO 36011KT 10SM CLR 13/M01 A3026 RMK AO2 SLP184 T01331006
KLAR 290053Z AUTO 03012KT 10SM FEW080 13/01 A3026 RMK AO2 PK WND 34028/0029 LTG DSNT SE SLP197 T01280011
KLAR 282353Z AUTO 33015G20KT 10SM FEW065 BKN095 16/M02 A3026 RMK AO2 SLP192 T01611017 10178 20139 56008
KLAR 282253Z AUTO 33012G22KT 10SM FEW100 17/M02 A3027 RMK AO2 SLP195 T01721022
KLAR 282153Z AUTO 31015G20KT 10SM CLR 17/M03 A3027 RMK AO2 SLP197 T01721033
KLAR 282053Z AUTO 31014G23KT 10SM SCT095 17/M03 A3029 RMK AO2 SLP199 T01721028 58010
KLAR 281953Z AUTO 35010G18KT 10SM SCT065 BKN090 16/M01 A3030 RMK AO2 SLP209 T01611011
KLAR 281853Z AUTO 33010G22KT 10SM SCT070 BKN085 14/M02 A3032 RMK AO2 SLP219 T01391017
KLAR 281753Z AUTO 34012G23KT 10SM FEW065 15/M01 A3032 RMK AO2 SLP212 T01501011 10150 21011 58003
KLAR 281653Z AUTO 35013KT 10SM SCT060 14/M01 A3033 RMK AO2 SLP213 T01391011
KLAR 281553Z AUTO 36005KT 10SM CLR 13/M01 A3033 RMK AO2 SLP219 T01281006
KLAR 281453Z AUTO VRB03KT 10SM CLR 09/01 A3033 RMK AO2 SLP227 T00940011 51008
KLAR 281353Z AUTO 16004KT 10SM CLR 06/00 A3033 RMK AO2 SLP223 T00560000
KLAR 281253Z AUTO 15006KT 10SM CLR 01/M01 A3032 RMK AO2 SLP227 T00111011
KLAR 281153Z AUTO 17007KT 10SM CLR M01/M03 A3031 RMK AO2 SLP225 T10111028 10028 21028 55001
KLAR 281053Z AUTO 14008KT 10SM CLR M02/M04 A3030 RMK AO2 SLP227 T10221039
KLAR 280953Z AUTO 15005KT 10SM FEW080 M02/M03 A3030 RMK AO2 SLP224 T10171033
KLAR 280853Z AUTO 21009KT 10SM CLR M01/M03 A3031 RMK AO2 SLP233 T10111028 51003
KLAR 280753Z AUTO 18005KT 10SM CLR M01/M02 A3031 RMK AO2 SLP240 T10061022
KLAR 280653Z AUTO 12004KT 10SM CLR 01/M03 A3031 RMK AO2 SLP228 T00061028 401280000
KLAR 280553Z AUTO 27005KT 10SM CLR 02/M02 A3030 RMK AO2 SLP229 T00171022 10122 20017 51008
KLAR 280453Z AUTO 29006KT 10SM CLR 02/M02 A3029 RMK AO2 SLP224 T00221017
KLAR 280353Z AUTO 30007KT 10SM CLR 03/M01 A3029 RMK AO2 SLP225 T00281011
KLAR 280253Z AUTO 32008KT 10SM CLR 04/M01 A3027 RMK AO2 SLP227 T00391011 53013
KLAR 280153Z AUTO 33011KT 10SM CLR 09/M02 A3025 RMK AO2 SLP198 T00891022
KLAR 280053Z AUTO 33015G20KT 10SM BKN055 OVC075 11/M02 A3024 RMK AO2 SLP186 T01111022
KLAR 272353Z AUTO 34014G21KT 10SM FEW060 12/M03 A3022 RMK AO2 SLP180 60000 T01221028 10128 20067 51010


Page loaded:  11:32 UTC  |   04:32 AM Pacific  |   05:32 AM Mountain  |   06:32 AM Central  |   07:32 AM Eastern

 

ADVISORIES

FORECASTS

FORECASTS

OBSERVATIONS

USER TOOLS

ABOUT US